UAL679 KLAX-KLAS
Flight info
| Callsign | UAL679 |
|---|---|
| Flight time | 0h 47m |
| Altitude | 29000 |
| Route | ORCKA5 MISEN RNDRZ4 |
| Aircraft | E75L/M-SDE3GILORVW/S |
Departure
| Time | 2026-05-05 16:53 |
|---|---|
| Airport | Los Angeles International Airport (KLAX) |
Arrival
| Time | 2026-05-05 17:40 |
|---|---|
| Airport | Harry Reid International Airport (KLAS) |
| Time | Latitude | Longitude | Altitude | Speed | Heading |
|---|---|---|---|---|---|
| 2026-05-05 15:50 | 33.94109 | -118.39278 | 91 ft | 0 kts | 358° |
| 2026-05-05 16:02 | 33.94108 | -118.39278 | 91 ft | 0 kts | 358° |
| 2026-05-05 16:15 | 33.94107 | -118.39278 | 91 ft | 0 kts | 358° |
| 2026-05-05 16:27 | 33.94106 | -118.39278 | 91 ft | 0 kts | 358° |
| 2026-05-05 16:39 | 33.94105 | -118.39278 | 91 ft | 0 kts | 358° |
| 2026-05-05 16:44 | 33.94111 | -118.39278 | 91 ft | 0 kts | 358° |
| 2026-05-05 16:44 | 33.94112 | -118.39278 | 91 ft | 1 kts | 357° |
| 2026-05-05 16:44 | 33.94127 | -118.39279 | 91 ft | 3 kts | 357° |
| 2026-05-05 16:45 | 33.94172 | -118.39281 | 91 ft | 10 kts | 358° |
| 2026-05-05 16:45 | 33.94189 | -118.39284 | 92 ft | 2 kts | 335° |
| 2026-05-05 16:45 | 33.94194 | -118.39295 | 92 ft | 2 kts | 275° |
| 2026-05-05 16:45 | 33.94187 | -118.39309 | 93 ft | 2 kts | 218° |
| 2026-05-05 16:46 | 33.94167 | -118.39314 | 93 ft | 4 kts | 185° |
| 2026-05-05 16:46 | 33.94141 | -118.39316 | 93 ft | 0 kts | 182° |
| 2026-05-05 16:46 | 33.94133 | -118.39316 | 91 ft | 2 kts | 182° |
| 2026-05-05 16:46 | 33.94121 | -118.39317 | 92 ft | 1 kts | 182° |
| 2026-05-05 16:47 | 33.94103 | -118.39318 | 93 ft | 4 kts | 182° |
| 2026-05-05 16:47 | 33.94066 | -118.39319 | 91 ft | 6 kts | 176° |
| 2026-05-05 16:47 | 33.94036 | -118.39284 | 91 ft | 7 kts | 93° |
| 2026-05-05 16:47 | 33.94021 | -118.39235 | 92 ft | 6 kts | 144° |
| 2026-05-05 16:48 | 33.93976 | -118.39213 | 91 ft | 5 kts | 144° |
| 2026-05-05 16:48 | 33.93964 | -118.39171 | 93 ft | 6 kts | 90° |
| 2026-05-05 16:48 | 33.93970 | -118.39106 | 93 ft | 10 kts | 83° |
| 2026-05-05 16:48 | 33.93980 | -118.39004 | 92 ft | 14 kts | 83° |
| 2026-05-05 16:49 | 33.93994 | -118.38874 | 92 ft | 17 kts | 82° |
| 2026-05-05 16:49 | 33.94007 | -118.38735 | 92 ft | 15 kts | 82° |
| 2026-05-05 16:49 | 33.94022 | -118.38601 | 93 ft | 17 kts | 85° |
| 2026-05-05 16:49 | 33.94032 | -118.38492 | 93 ft | 11 kts | 82° |
| 2026-05-05 16:50 | 33.94039 | -118.38436 | 95 ft | 1 kts | 83° |
| 2026-05-05 16:50 | 33.94040 | -118.38417 | 97 ft | 4 kts | 83° |
| 2026-05-05 16:50 | 33.94044 | -118.38376 | 93 ft | 6 kts | 94° |
| 2026-05-05 16:50 | 33.94023 | -118.38334 | 95 ft | 6 kts | 154° |
| 2026-05-05 16:51 | 33.93987 | -118.38325 | 98 ft | 5 kts | 173° |
| 2026-05-05 16:51 | 33.93962 | -118.38325 | 96 ft | 5 kts | 199° |
| 2026-05-05 16:51 | 33.93952 | -118.38345 | 98 ft | 0 kts | 261° |
| 2026-05-05 16:51 | 33.93950 | -118.38362 | 96 ft | 9 kts | 261° |
| 2026-05-05 16:52 | 33.93927 | -118.38578 | 96 ft | 43 kts | 262° |
| 2026-05-05 16:52 | 33.93878 | -118.39061 | 93 ft | 72 kts | 265° |
| 2026-05-05 16:52 | 33.93796 | -118.39888 | 98 ft | 135 kts | 263° |
| 2026-05-05 16:52 | 33.93653 | -118.41173 | 608 ft | 165 kts | 262° |
| 2026-05-05 16:53 | 33.93473 | -118.42594 | 1603 ft | 178 kts | 261° |
| 2026-05-05 16:53 | 33.93268 | -118.44090 | 2739 ft | 186 kts | 261° |
| 2026-05-05 16:53 | 33.93051 | -118.45696 | 3649 ft | 195 kts | 261° |
| 2026-05-05 16:53 | 33.92826 | -118.47310 | 3886 ft | 194 kts | 261° |
| 2026-05-05 16:54 | 33.92605 | -118.48889 | 4104 ft | 194 kts | 261° |
| 2026-05-05 16:54 | 33.92374 | -118.50529 | 4160 ft | 206 kts | 261° |
| 2026-05-05 16:54 | 33.92132 | -118.52243 | 4354 ft | 210 kts | 261° |
| 2026-05-05 16:54 | 33.91883 | -118.53995 | 4541 ft | 215 kts | 261° |
| 2026-05-05 16:55 | 33.91594 | -118.55781 | 4680 ft | 220 kts | 263° |
| 2026-05-05 16:55 | 33.91368 | -118.57618 | 4825 ft | 224 kts | 259° |
| 2026-05-05 16:55 | 33.90650 | -118.59298 | 4918 ft | 234 kts | 225° |
| 2026-05-05 16:55 | 33.89123 | -118.60172 | 5414 ft | 259 kts | 189° |
| 2026-05-05 16:56 | 33.87269 | -118.60005 | 6123 ft | 275 kts | 169° |
| 2026-05-05 16:56 | 33.85413 | -118.59303 | 6958 ft | 282 kts | 158° |
| 2026-05-05 16:56 | 33.83695 | -118.58196 | 7807 ft | 286 kts | 147° |
| 2026-05-05 16:56 | 33.82128 | -118.56691 | 8657 ft | 290 kts | 137° |
| 2026-05-05 16:57 | 33.80800 | -118.54843 | 9535 ft | 295 kts | 125° |
| 2026-05-05 16:57 | 33.79911 | -118.52603 | 10237 ft | 306 kts | 104° |
| 2026-05-05 16:57 | 33.79999 | -118.50004 | 10683 ft | 320 kts | 70° |
| 2026-05-05 16:57 | 33.81174 | -118.47751 | 11414 ft | 322 kts | 42° |
| 2026-05-05 16:58 | 33.83072 | -118.46363 | 12254 ft | 321 kts | 17° |
| 2026-05-05 16:58 | 33.85242 | -118.45700 | 13142 ft | 324 kts | 9° |
| 2026-05-05 16:58 | 33.87465 | -118.45149 | 14057 ft | 329 kts | 10° |
| 2026-05-05 16:58 | 33.89723 | -118.44613 | 14944 ft | 333 kts | 8° |
| 2026-05-05 16:59 | 33.92018 | -118.44152 | 15828 ft | 336 kts | 7° |
| 2026-05-05 16:59 | 33.94333 | -118.43608 | 16628 ft | 343 kts | 17° |
| 2026-05-05 16:59 | 33.96409 | -118.42174 | 17424 ft | 350 kts | 40° |
| 2026-05-05 16:59 | 33.97944 | -118.39872 | 18228 ft | 356 kts | 61° |
| 2026-05-05 17:00 | 33.98911 | -118.37101 | 18895 ft | 362 kts | 69° |
| 2026-05-05 17:00 | 33.99734 | -118.34204 | 19059 ft | 369 kts | 71° |
| 2026-05-05 17:00 | 34.00526 | -118.31269 | 19263 ft | 364 kts | 71° |
| 2026-05-05 17:00 | 34.01426 | -118.28449 | 20158 ft | 360 kts | 60° |
| 2026-05-05 17:01 | 34.02792 | -118.25915 | 20865 ft | 361 kts | 53° |
| 2026-05-05 17:01 | 34.04258 | -118.23443 | 21524 ft | 365 kts | 54° |
| 2026-05-05 17:01 | 34.05731 | -118.20937 | 22139 ft | 368 kts | 53° |
| 2026-05-05 17:01 | 34.07223 | -118.18392 | 22768 ft | 372 kts | 54° |
| 2026-05-05 17:02 | 34.08712 | -118.15854 | 23333 ft | 377 kts | 53° |
| 2026-05-05 17:02 | 34.10243 | -118.13245 | 23878 ft | 383 kts | 53° |
| 2026-05-05 17:02 | 34.11795 | -118.10596 | 24412 ft | 387 kts | 53° |
| 2026-05-05 17:02 | 34.13352 | -118.07908 | 24907 ft | 393 kts | 54° |
| 2026-05-05 17:03 | 34.14893 | -118.05159 | 25327 ft | 400 kts | 55° |
| 2026-05-05 17:03 | 34.16463 | -118.02364 | 25825 ft | 404 kts | 55° |
| 2026-05-05 17:03 | 34.18050 | -117.99556 | 26320 ft | 408 kts | 54° |
| 2026-05-05 17:03 | 34.19649 | -117.96712 | 26835 ft | 411 kts | 54° |
| 2026-05-05 17:04 | 34.21261 | -117.93843 | 27323 ft | 412 kts | 55° |
| 2026-05-05 17:04 | 34.22881 | -117.90956 | 27769 ft | 416 kts | 55° |
| 2026-05-05 17:04 | 34.24491 | -117.88090 | 28229 ft | 419 kts | 55° |
| 2026-05-05 17:04 | 34.26133 | -117.85161 | 28668 ft | 422 kts | 55° |
| 2026-05-05 17:05 | 34.27783 | -117.82215 | 29072 ft | 425 kts | 54° |
| 2026-05-05 17:05 | 34.29471 | -117.79209 | 29129 ft | 437 kts | 55° |
| 2026-05-05 17:05 | 34.32957 | -117.72976 | 29096 ft | 456 kts | 55° |
| 2026-05-05 17:06 | 34.36566 | -117.66601 | 28992 ft | 460 kts | 52° |
| 2026-05-05 17:06 | 34.40371 | -117.60288 | 28979 ft | 465 kts | 53° |
| 2026-05-05 17:07 | 34.44171 | -117.53931 | 28943 ft | 464 kts | 53° |
| 2026-05-05 17:07 | 34.47872 | -117.47721 | 29003 ft | 457 kts | 53° |
| 2026-05-05 17:08 | 34.51614 | -117.41430 | 29013 ft | 461 kts | 53° |
| 2026-05-05 17:08 | 34.55371 | -117.35102 | 29019 ft | 462 kts | 53° |
| 2026-05-05 17:09 | 34.59110 | -117.28789 | 29015 ft | 462 kts | 53° |
| 2026-05-05 17:09 | 34.62872 | -117.22427 | 28997 ft | 462 kts | 53° |
| 2026-05-05 17:10 | 34.66614 | -117.16080 | 28921 ft | 462 kts | 53° |
| 2026-05-05 17:10 | 34.70356 | -117.09730 | 28916 ft | 466 kts | 54° |
| 2026-05-05 17:11 | 34.74124 | -117.03324 | 28946 ft | 466 kts | 53° |
| 2026-05-05 17:11 | 34.77896 | -116.96900 | 28945 ft | 466 kts | 54° |
| 2026-05-05 17:12 | 34.81664 | -116.90471 | 28971 ft | 466 kts | 54° |
| 2026-05-05 17:12 | 34.85405 | -116.84076 | 28977 ft | 464 kts | 54° |
| 2026-05-05 17:13 | 34.89159 | -116.77645 | 28986 ft | 468 kts | 54° |
| 2026-05-05 17:13 | 34.92918 | -116.71185 | 28965 ft | 466 kts | 55° |
| 2026-05-05 17:14 | 34.96595 | -116.64660 | 28962 ft | 468 kts | 55° |
| 2026-05-05 17:14 | 35.00244 | -116.58183 | 28936 ft | 464 kts | 55° |
| 2026-05-05 17:15 | 35.03918 | -116.51657 | 28811 ft | 464 kts | 55° |
| 2026-05-05 17:15 | 35.05726 | -116.48443 | 28578 ft | 455 kts | 55° |
| 2026-05-05 17:15 | 35.07514 | -116.45257 | 28156 ft | 454 kts | 55° |
| 2026-05-05 17:16 | 35.09290 | -116.42094 | 27867 ft | 447 kts | 55° |
| 2026-05-05 17:16 | 35.11226 | -116.39138 | 27584 ft | 442 kts | 47° |
| 2026-05-05 17:16 | 35.13336 | -116.36404 | 27608 ft | 442 kts | 46° |
| 2026-05-05 17:16 | 35.15455 | -116.33675 | 27625 ft | 442 kts | 46° |
| 2026-05-05 17:17 | 35.17584 | -116.30926 | 27646 ft | 443 kts | 46° |
| 2026-05-05 17:17 | 35.19682 | -116.28224 | 27662 ft | 445 kts | 46° |
| 2026-05-05 17:17 | 35.21799 | -116.25502 | 27553 ft | 441 kts | 46° |
| 2026-05-05 17:17 | 35.23895 | -116.22773 | 27319 ft | 440 kts | 47° |
| 2026-05-05 17:18 | 35.25923 | -116.19956 | 27058 ft | 438 kts | 48° |
| 2026-05-05 17:18 | 35.27945 | -116.17165 | 26785 ft | 438 kts | 48° |
| 2026-05-05 17:18 | 35.29952 | -116.14394 | 26514 ft | 435 kts | 48° |
| 2026-05-05 17:18 | 35.31954 | -116.11626 | 26264 ft | 432 kts | 48° |
| 2026-05-05 17:19 | 35.33956 | -116.08866 | 26009 ft | 430 kts | 48° |
| 2026-05-05 17:19 | 35.35949 | -116.06121 | 25760 ft | 429 kts | 48° |
| 2026-05-05 17:19 | 35.37925 | -116.03399 | 25510 ft | 428 kts | 48° |
| 2026-05-05 17:19 | 35.39894 | -116.00687 | 25272 ft | 424 kts | 48° |
| 2026-05-05 17:20 | 35.41850 | -115.97991 | 25023 ft | 421 kts | 48° |
| 2026-05-05 17:20 | 35.43797 | -115.95305 | 24771 ft | 420 kts | 48° |
| 2026-05-05 17:20 | 35.45710 | -115.92665 | 24529 ft | 421 kts | 48° |
| 2026-05-05 17:20 | 35.47652 | -115.89993 | 24296 ft | 418 kts | 48° |
| 2026-05-05 17:21 | 35.49588 | -115.87325 | 24062 ft | 417 kts | 48° |
| 2026-05-05 17:21 | 35.51514 | -115.84665 | 23826 ft | 417 kts | 48° |
| 2026-05-05 17:21 | 35.53425 | -115.82025 | 23585 ft | 411 kts | 48° |
| 2026-05-05 17:22 | 35.57020 | -115.77049 | 23010 ft | 374 kts | 48° |
| 2026-05-05 17:22 | 35.58722 | -115.74689 | 22754 ft | 366 kts | 48° |
| 2026-05-05 17:22 | 35.60407 | -115.72378 | 22496 ft | 359 kts | 47° |
| 2026-05-05 17:22 | 35.62087 | -115.70123 | 22230 ft | 356 kts | 47° |
| 2026-05-05 17:23 | 35.63747 | -115.67886 | 21962 ft | 352 kts | 47° |
| 2026-05-05 17:23 | 35.65357 | -115.65713 | 21671 ft | 336 kts | 47° |
| 2026-05-05 17:23 | 35.66900 | -115.63630 | 21410 ft | 323 kts | 47° |
| 2026-05-05 17:23 | 35.68388 | -115.61620 | 21149 ft | 312 kts | 47° |
| 2026-05-05 17:24 | 35.69828 | -115.59672 | 20891 ft | 302 kts | 47° |
| 2026-05-05 17:24 | 35.71225 | -115.57783 | 20638 ft | 294 kts | 47° |
| 2026-05-05 17:24 | 35.72617 | -115.55971 | 20390 ft | 290 kts | 40° |
| 2026-05-05 17:24 | 35.74241 | -115.54581 | 20160 ft | 287 kts | 29° |
| 2026-05-05 17:25 | 35.75981 | -115.53383 | 19935 ft | 286 kts | 28° |
| 2026-05-05 17:25 | 35.77150 | -115.52569 | 19773 ft | 285 kts | 29° |
| 2026-05-05 17:25 | 35.79434 | -115.50976 | 19438 ft | 284 kts | 29° |
| 2026-05-05 17:25 | 35.81150 | -115.49777 | 19193 ft | 283 kts | 29° |
| 2026-05-05 17:26 | 35.82859 | -115.48581 | 18950 ft | 281 kts | 29° |
| 2026-05-05 17:26 | 35.84551 | -115.47394 | 18705 ft | 278 kts | 30° |
| 2026-05-05 17:26 | 35.86226 | -115.46211 | 18464 ft | 276 kts | 30° |
| 2026-05-05 17:26 | 35.87888 | -115.45039 | 18223 ft | 274 kts | 30° |
| 2026-05-05 17:27 | 35.89540 | -115.43874 | 17955 ft | 273 kts | 30° |
| 2026-05-05 17:27 | 35.91184 | -115.42714 | 17684 ft | 272 kts | 30° |
| 2026-05-05 17:27 | 35.92828 | -115.41565 | 17418 ft | 271 kts | 30° |
| 2026-05-05 17:27 | 35.94468 | -115.40419 | 17150 ft | 271 kts | 30° |
| 2026-05-05 17:28 | 35.96087 | -115.39289 | 16888 ft | 270 kts | 30° |
| 2026-05-05 17:28 | 35.97742 | -115.38133 | 16629 ft | 270 kts | 30° |
| 2026-05-05 17:28 | 35.99376 | -115.36990 | 16370 ft | 269 kts | 30° |
| 2026-05-05 17:28 | 36.00808 | -115.35531 | 16076 ft | 268 kts | 55° |
| 2026-05-05 17:29 | 36.01480 | -115.33459 | 15815 ft | 265 kts | 85° |
| 2026-05-05 17:29 | 36.01455 | -115.31206 | 15616 ft | 261 kts | 94° |
| 2026-05-05 17:29 | 36.01330 | -115.28973 | 15398 ft | 261 kts | 95° |
| 2026-05-05 17:29 | 36.01216 | -115.26730 | 15127 ft | 262 kts | 95° |
| 2026-05-05 17:30 | 36.01103 | -115.24493 | 14798 ft | 260 kts | 94° |
| 2026-05-05 17:30 | 36.00989 | -115.22270 | 14411 ft | 259 kts | 94° |
| 2026-05-05 17:30 | 36.00877 | -115.20044 | 13990 ft | 259 kts | 95° |
| 2026-05-05 17:30 | 36.00764 | -115.17817 | 13478 ft | 260 kts | 95° |
| 2026-05-05 17:31 | 36.00650 | -115.15586 | 12952 ft | 256 kts | 95° |
| 2026-05-05 17:31 | 36.00539 | -115.13417 | 12413 ft | 249 kts | 94° |
| 2026-05-05 17:31 | 36.00433 | -115.11313 | 11867 ft | 241 kts | 94° |
| 2026-05-05 17:31 | 36.00330 | -115.09294 | 11331 ft | 236 kts | 94° |
| 2026-05-05 17:32 | 36.00228 | -115.07289 | 10734 ft | 234 kts | 95° |
| 2026-05-05 17:32 | 36.00127 | -115.05287 | 10121 ft | 233 kts | 94° |
| 2026-05-05 17:32 | 36.00024 | -115.03294 | 9493 ft | 233 kts | 94° |
| 2026-05-05 17:32 | 35.99920 | -115.01297 | 8855 ft | 233 kts | 94° |
| 2026-05-05 17:33 | 35.99876 | -114.99293 | 8226 ft | 234 kts | 91° |
| 2026-05-05 17:33 | 35.99879 | -114.97279 | 7581 ft | 234 kts | 91° |
| 2026-05-05 17:33 | 35.99872 | -114.95292 | 7203 ft | 226 kts | 91° |
| 2026-05-05 17:33 | 35.99905 | -114.93403 | 6930 ft | 216 kts | 85° |
| 2026-05-05 17:34 | 36.00530 | -114.91775 | 6645 ft | 212 kts | 46° |
| 2026-05-05 17:34 | 36.01731 | -114.90764 | 6433 ft | 205 kts | 29° |
| 2026-05-05 17:34 | 36.03003 | -114.89996 | 6133 ft | 205 kts | 23° |
| 2026-05-05 17:34 | 36.04403 | -114.89630 | 5688 ft | 209 kts | 355° |
| 2026-05-05 17:35 | 36.05756 | -114.90220 | 5256 ft | 208 kts | 325° |
| 2026-05-05 17:35 | 36.06740 | -114.91464 | 4958 ft | 197 kts | 294° |
| 2026-05-05 17:35 | 36.07223 | -114.92986 | 4876 ft | 184 kts | 284° |
| 2026-05-05 17:35 | 36.07328 | -114.94532 | 4758 ft | 179 kts | 265° |
| 2026-05-05 17:36 | 36.07324 | -114.96033 | 4639 ft | 171 kts | 270° |
| 2026-05-05 17:36 | 36.07370 | -114.97441 | 4459 ft | 158 kts | 268° |
| 2026-05-05 17:36 | 36.07368 | -114.98772 | 4254 ft | 153 kts | 267° |
| 2026-05-05 17:36 | 36.07359 | -115.00077 | 4067 ft | 150 kts | 268° |
| 2026-05-05 17:37 | 36.07367 | -115.01366 | 3896 ft | 150 kts | 266° |
| 2026-05-05 17:37 | 36.07366 | -115.02231 | 3736 ft | 149 kts | 268° |
| 2026-05-05 17:37 | 36.07368 | -115.03475 | 3552 ft | 144 kts | 267° |
| 2026-05-05 17:37 | 36.07370 | -115.04702 | 3373 ft | 143 kts | 267° |
| 2026-05-05 17:38 | 36.07369 | -115.05940 | 3169 ft | 143 kts | 268° |
| 2026-05-05 17:38 | 36.07363 | -115.07171 | 2982 ft | 145 kts | 267° |
| 2026-05-05 17:38 | 36.07385 | -115.08427 | 2746 ft | 147 kts | 268° |
| 2026-05-05 17:38 | 36.07415 | -115.09660 | 2649 ft | 142 kts | 265° |
| 2026-05-05 17:39 | 36.07389 | -115.10864 | 2514 ft | 140 kts | 263° |
| 2026-05-05 17:39 | 36.07362 | -115.12104 | 2339 ft | 150 kts | 269° |
| 2026-05-05 17:39 | 36.07369 | -115.13410 | 2198 ft | 150 kts | 268° |
| 2026-05-05 17:39 | 36.07366 | -115.14583 | 2188 ft | 118 kts | 270° |
| 2026-05-05 17:40 | 36.07362 | -115.15397 | 2185 ft | 71 kts | 272° |
| 2026-05-05 17:40 | 36.07366 | -115.15766 | 2187 ft | 28 kts | 269° |
| 2026-05-05 17:40 | 36.07365 | -115.15944 | 2189 ft | 18 kts | 269° |
| 2026-05-05 17:40 | 36.07375 | -115.16091 | 2189 ft | 15 kts | 303° |
| 2026-05-05 17:41 | 36.07458 | -115.16128 | 2189 ft | 14 kts | 0° |
| 2026-05-05 17:41 | 36.07479 | -115.16128 | 2189 ft | 1 kts | 359° |
| 2026-05-05 17:41 | 36.07498 | -115.16128 | 2188 ft | 4 kts | 359° |
| 2026-05-05 17:41 | 36.07517 | -115.16128 | 2189 ft | 0 kts | 360° |
| 2026-05-05 17:42 | 36.07519 | -115.16128 | 2189 ft | 0 kts | 360° |
| 2026-05-05 17:44 | 36.07522 | -115.16128 | 2189 ft | 3 kts | 359° |
| 2026-05-05 17:44 | 36.07562 | -115.16128 | 2188 ft | 8 kts | 0° |
| 2026-05-05 17:44 | 36.07634 | -115.16128 | 2190 ft | 12 kts | 360° |
| 2026-05-05 17:44 | 36.07730 | -115.16128 | 2188 ft | 16 kts | 360° |
| 2026-05-05 17:45 | 36.07801 | -115.16089 | 2188 ft | 12 kts | 73° |
| 2026-05-05 17:45 | 36.07802 | -115.15986 | 2185 ft | 13 kts | 91° |
| 2026-05-05 17:45 | 36.07803 | -115.15871 | 2186 ft | 14 kts | 88° |
| 2026-05-05 17:45 | 36.07803 | -115.15740 | 2186 ft | 16 kts | 92° |
| 2026-05-05 17:46 | 36.07802 | -115.15597 | 2188 ft | 17 kts | 88° |
| 2026-05-05 17:46 | 36.07804 | -115.15441 | 2187 ft | 19 kts | 91° |
| 2026-05-05 17:46 | 36.07804 | -115.15275 | 2186 ft | 20 kts | 88° |
| 2026-05-05 17:46 | 36.07836 | -115.15138 | 2188 ft | 15 kts | 42° |
| 2026-05-05 17:47 | 36.07940 | -115.15112 | 2187 ft | 17 kts | 359° |
| 2026-05-05 17:47 | 36.08062 | -115.15114 | 2188 ft | 19 kts | 359° |
| 2026-05-05 17:47 | 36.08164 | -115.15114 | 2186 ft | 13 kts | 0° |
| 2026-05-05 17:47 | 36.08220 | -115.15104 | 2185 ft | 0 kts | 14° |
| 2026-05-05 17:48 | 36.08221 | -115.15104 | 2185 ft | 0 kts | 14° |
| 2026-05-05 17:48 | 36.08227 | -115.15102 | 2185 ft | 0 kts | 14° |